createdAt,value
2016-11-03T00:00:09.219Z,44.09
2016-11-03T00:00:49.892Z,44.37
2016-11-03T00:01:30.557Z,44.09
2016-11-03T00:02:11.236Z,44.57
2016-11-03T00:02:51.944Z,44.18
2016-11-03T00:03:32.628Z,43.89
2016-11-03T00:04:13.321Z,43.99
2016-11-03T00:04:54.036Z,43.99
2016-11-03T00:05:34.727Z,43.99
2016-11-03T00:06:15.379Z,44.09
2016-11-03T00:06:56.058Z,44.09
2016-11-03T00:07:36.762Z,43.99
2016-11-03T00:08:17.380Z,44.18
2016-11-03T00:08:58.032Z,43.99
2016-11-03T00:09:38.679Z,44.57
2016-11-03T00:10:19.344Z,44.37
2016-11-03T00:11:00.028Z,44.27
2016-11-03T00:11:40.709Z,44.27
2016-11-03T00:12:21.371Z,44.18
2016-11-03T00:13:02.063Z,44.47
2016-11-03T00:13:42.755Z,44.67
2016-11-03T00:14:23.461Z,44.67
2016-11-03T00:15:04.112Z,44.37
2016-11-03T00:15:44.798Z,44.09
2016-11-03T00:16:25.461Z,44.18
2016-11-03T00:17:06.124Z,44.37
2016-11-03T00:17:46.789Z,44.18
2016-11-03T00:18:27.507Z,44.18
2016-11-03T00:19:08.174Z,44.67
2016-11-03T00:19:48.883Z,44.57
2016-11-03T00:20:29.564Z,44.76
2016-11-03T00:21:10.253Z,44.18
2016-11-03T00:21:50.920Z,44.37
2016-11-03T00:22:31.591Z,44.47
2016-11-03T00:23:12.244Z,44.47
2016-11-03T00:23:52.929Z,44.57
2016-11-03T00:24:33.580Z,44.57
2016-11-03T00:25:14.334Z,44.57
2016-11-03T00:25:55.005Z,44.67
2016-11-03T00:26:36.606Z,44.57
2016-11-03T00:27:17.307Z,44.37
2016-11-03T00:27:57.957Z,44.76
2016-11-03T00:28:38.604Z,44.47
2016-11-03T00:29:19.266Z,44.47
2016-11-03T00:29:59.939Z,44.57
2016-11-03T00:30:40.612Z,44.47
2016-11-03T00:31:21.993Z,44.47
2016-11-03T00:32:02.732Z,44.47
2016-11-03T00:32:43.331Z,44.57
2016-11-03T00:33:24.015Z,44.57
2016-11-03T00:34:04.724Z,44.57
2016-11-03T00:34:45.447Z,44.57
2016-11-03T00:35:26.178Z,44.67
2016-11-03T00:36:06.855Z,44.67
2016-11-03T00:36:47.494Z,44.67
2016-11-03T00:37:28.200Z,44.57
2016-11-03T00:38:08.901Z,44.67
2016-11-03T00:38:49.596Z,44.57
2016-11-03T00:39:30.299Z,44.57
2016-11-03T00:40:10.929Z,44.47
2016-11-03T00:40:51.580Z,44.57
2016-11-03T00:41:32.220Z,44.57
2016-11-03T00:42:12.914Z,44.67
2016-11-03T00:42:53.584Z,44.76
2016-11-03T00:43:34.275Z,44.57
2016-11-03T00:44:14.944Z,44.47
2016-11-03T00:44:55.646Z,44.47
2016-11-03T00:45:36.370Z,44.76
2016-11-03T00:46:17.016Z,44.47
2016-11-03T00:46:57.692Z,44.57
2016-11-03T00:47:38.333Z,44.57
2016-11-03T00:48:19.022Z,44.67
2016-11-03T00:48:59.752Z,44.57
2016-11-03T00:49:40.452Z,44.67
2016-11-03T00:50:21.088Z,44.57
2016-11-03T00:51:01.782Z,44.67
2016-11-03T00:51:42.477Z,44.67
2016-11-03T00:52:23.154Z,44.67
2016-11-03T00:53:03.842Z,44.57
2016-11-03T00:53:44.493Z,44.67
2016-11-03T00:54:25.185Z,44.54
2016-11-03T00:55:05.837Z,44.86
2016-11-03T00:55:46.562Z,44.47
2016-11-03T00:56:27.268Z,44.86
2016-11-03T00:57:07.974Z,45.51
2016-11-03T00:57:48.626Z,44.76
2016-11-03T00:58:29.306Z,44.47
2016-11-03T00:59:09.964Z,44.47
2016-11-03T00:59:50.649Z,44.67
2016-11-03T01:00:31.303Z,44.57
2016-11-03T01:01:11.968Z,44.57
2016-11-03T01:01:52.609Z,44.67
2016-11-03T01:02:33.272Z,44.86
2016-11-03T01:03:13.949Z,44.76
2016-11-03T01:03:54.606Z,44.67
2016-11-03T01:04:35.329Z,45.73
2016-11-03T01:05:16.022Z,44.86
2016-11-03T01:05:56.693Z,45.44
2016-11-03T01:06:37.358Z,45.05
2016-11-03T01:07:18.055Z,45.15
2016-11-03T01:07:58.714Z,45.25
2016-11-03T01:08:39.362Z,45.83
2016-11-03T01:09:20.019Z,45.64
2016-11-03T01:10:00.695Z,45.44
2016-11-03T01:10:41.332Z,45.54
2016-11-03T01:11:22.029Z,45.73
2016-11-03T01:12:02.686Z,45.25
2016-11-03T01:12:43.304Z,45.44
2016-11-03T01:13:24.016Z,45.73
2016-11-03T01:14:04.664Z,45.34
2016-11-03T01:14:45.372Z,45.32
2016-11-03T01:15:26.049Z,45.25
2016-11-03T01:16:06.725Z,45.25
2016-11-03T01:16:47.424Z,45.25
2016-11-03T01:17:28.108Z,45.44
2016-11-03T01:18:08.844Z,45.54
2016-11-03T01:18:49.548Z,44.96
2016-11-03T01:19:30.204Z,45.25
2016-11-03T01:20:10.879Z,45.34
2016-11-03T01:20:51.608Z,45.25
2016-11-03T01:21:32.305Z,45.34
2016-11-03T01:22:13.032Z,45.34
2016-11-03T01:22:53.650Z,45.05
2016-11-03T01:23:34.311Z,45.25
2016-11-03T01:24:14.971Z,45.54
2016-11-03T01:24:55.609Z,45.34
2016-11-03T01:25:36.238Z,45.25
2016-11-03T01:26:16.880Z,45.34
2016-11-03T01:26:57.523Z,45.25
2016-11-03T01:27:38.161Z,45.15
2016-11-03T01:28:18.786Z,45.15
2016-11-03T01:28:59.403Z,45.15
2016-11-03T01:29:40.044Z,45.34
2016-11-03T01:30:20.669Z,45.15
2016-11-03T01:31:01.312Z,45.34
2016-11-03T01:31:41.939Z,45.15
2016-11-03T01:32:22.596Z,45.34
2016-11-03T01:33:03.250Z,45.34
2016-11-03T01:33:43.968Z,45.15
2016-11-03T01:34:24.621Z,45.44
2016-11-03T01:35:05.302Z,45.64
2016-11-03T01:35:46.013Z,45.34
2016-11-03T01:36:26.709Z,45.25
2016-11-03T01:37:07.358Z,45.44
2016-11-03T01:37:48.021Z,45.15
2016-11-03T01:38:28.745Z,45.34
2016-11-03T01:39:09.425Z,45.42
2016-11-03T01:39:50.078Z,45.34
2016-11-03T01:40:30.773Z,45.25
2016-11-03T01:41:11.499Z,45.25
2016-11-03T01:41:52.149Z,45.54
2016-11-03T01:42:32.866Z,45.34
2016-11-03T01:43:13.564Z,45.64
2016-11-03T01:43:54.245Z,45.34
2016-11-03T01:44:34.952Z,45.64
2016-11-03T01:45:15.630Z,45.25
2016-11-03T01:45:56.281Z,45.51
2016-11-03T01:46:36.991Z,45.44
2016-11-03T01:47:17.656Z,45.34
2016-11-03T01:47:58.333Z,45.25
2016-11-03T01:48:39.055Z,45.54
2016-11-03T01:49:19.786Z,45.34
2016-11-03T01:50:00.510Z,45.15
2016-11-03T01:50:41.202Z,45.64
2016-11-03T01:51:21.934Z,45.54
2016-11-03T01:52:02.627Z,45.34
2016-11-03T01:52:43.303Z,45.25
2016-11-03T01:53:23.998Z,45.25
2016-11-03T01:54:04.680Z,45.54
2016-11-03T01:54:45.390Z,45.64
2016-11-03T01:55:26.091Z,45.25
2016-11-03T01:56:06.790Z,45.54
2016-11-03T01:56:47.512Z,45.34
2016-11-03T01:57:28.195Z,45.54
2016-11-03T01:58:08.908Z,45.25
2016-11-03T01:58:49.567Z,45.44
2016-11-03T01:59:30.228Z,45.64
2016-11-03T02:00:10.950Z,45.25
2016-11-03T02:00:51.639Z,45.64
2016-11-03T02:01:32.341Z,45.54
2016-11-03T02:02:13.002Z,45.25
2016-11-03T02:02:53.699Z,45.34
2016-11-03T02:03:34.389Z,45.54
2016-11-03T02:04:15.019Z,45.25
2016-11-03T02:04:55.719Z,45.44
2016-11-03T02:05:36.359Z,45.25
2016-11-03T02:06:17.049Z,45.64
2016-11-03T02:06:57.723Z,45.44
2016-11-03T02:07:38.393Z,45.42
2016-11-03T02:08:19.096Z,45.25
2016-11-03T02:08:59.774Z,45.44
2016-11-03T02:09:40.447Z,45.44
2016-11-03T02:10:21.132Z,45.15
2016-11-03T02:11:01.846Z,45.44
2016-11-03T02:11:42.525Z,45.44
2016-11-03T02:12:23.193Z,45.73
2016-11-03T02:13:03.907Z,45.73
2016-11-03T02:13:44.601Z,45.44
2016-11-03T02:14:25.257Z,45.64
2016-11-03T02:15:05.942Z,45.44
2016-11-03T02:15:46.646Z,45.73
2016-11-03T02:16:27.294Z,45.51
2016-11-03T02:17:07.972Z,45.64
2016-11-03T02:17:48.678Z,45.73
2016-11-03T02:18:29.427Z,45.64
2016-11-03T02:19:10.127Z,45.54
2016-11-03T02:19:50.769Z,45.83
2016-11-03T02:20:31.473Z,45.81
2016-11-03T02:21:12.179Z,45.44
2016-11-03T02:21:52.862Z,45.83
2016-11-03T02:22:33.529Z,45.73
2016-11-03T02:23:14.182Z,45.44
2016-11-03T02:23:54.912Z,45.83
2016-11-03T02:24:35.584Z,45.92
2016-11-03T02:25:16.269Z,46.02
2016-11-03T02:25:56.942Z,46.31
2016-11-03T02:26:37.630Z,45.92
2016-11-03T02:27:18.328Z,45.92
2016-11-03T02:27:59.070Z,45.83
2016-11-03T02:28:39.775Z,45.83
2016-11-03T02:29:20.454Z,45.92
2016-11-03T02:30:01.155Z,45.73
2016-11-03T02:30:41.840Z,45.83
2016-11-03T02:31:22.519Z,46.02
2016-11-03T02:32:03.228Z,46.02
2016-11-03T02:32:43.858Z,46.67
2016-11-03T02:33:24.509Z,45.81
2016-11-03T02:34:05.191Z,45.81
2016-11-03T02:34:45.893Z,45.83
2016-11-03T02:35:26.605Z,45.83
2016-11-03T02:36:07.262Z,45.81
2016-11-03T02:36:47.912Z,45.83
2016-11-03T02:37:28.629Z,45.92
2016-11-03T02:38:09.341Z,45.92
2016-11-03T02:38:50.046Z,45.83
2016-11-03T02:39:30.749Z,46.19
2016-11-03T02:40:11.449Z,45.92
2016-11-03T02:40:52.184Z,46.8
2016-11-03T02:41:32.875Z,46.7
2016-11-03T02:42:13.568Z,46.22
2016-11-03T02:42:54.242Z,45.92
2016-11-03T02:43:34.951Z,46.39
2016-11-03T02:44:15.652Z,46.7
2016-11-03T02:44:56.347Z,46.6
2016-11-03T02:45:36.996Z,46
2016-11-03T02:46:17.627Z,46.19
2016-11-03T02:46:58.300Z,46.51
2016-11-03T02:47:38.966Z,46.41
2016-11-03T02:48:19.627Z,46.39
2016-11-03T02:49:00.331Z,46.22
2016-11-03T02:49:40.950Z,46.41
2016-11-03T02:50:21.664Z,46.51
2016-11-03T02:51:02.408Z,46.51
2016-11-03T02:51:43.040Z,46.6
2016-11-03T02:52:23.724Z,46.51
2016-11-03T02:53:04.399Z,46.51
2016-11-03T02:53:45.064Z,46.39
2016-11-03T02:54:25.800Z,46.39
2016-11-03T02:55:06.470Z,46.51
2016-11-03T02:55:47.178Z,46.58
2016-11-03T02:56:27.854Z,46.6
2016-11-03T02:57:08.488Z,46.41
2016-11-03T02:57:49.155Z,46.39
2016-11-03T02:58:29.843Z,45.92
2016-11-03T02:59:10.537Z,46.22
2016-11-03T02:59:51.230Z,46.6
2016-11-03T03:00:31.920Z,46.41
2016-11-03T03:01:12.585Z,46.31
2016-11-03T03:01:53.233Z,46.48
2016-11-03T03:02:33.910Z,46.41
2016-11-03T03:03:14.589Z,46.31
2016-11-03T03:03:55.230Z,46.41
2016-11-03T03:04:35.906Z,46.41
2016-11-03T03:05:16.606Z,46.51
2016-11-03T03:05:57.257Z,46.51
2016-11-03T03:06:37.949Z,46.39
2016-11-03T03:07:18.580Z,46.39
2016-11-03T03:07:59.301Z,46.29
2016-11-03T03:08:39.984Z,46.41
2016-11-03T03:09:20.691Z,46.41
2016-11-03T03:10:01.357Z,46.39
2016-11-03T03:10:41.991Z,46.22
2016-11-03T03:11:22.679Z,46.39
2016-11-03T03:12:03.385Z,46.31
2016-11-03T03:12:44.090Z,46.31
2016-11-03T03:13:24.791Z,46.22
2016-11-03T03:14:05.449Z,46.39
2016-11-03T03:14:46.077Z,46.39
2016-11-03T03:15:26.753Z,46.48
2016-11-03T03:16:07.454Z,46.39
2016-11-03T03:16:48.138Z,46.19
2016-11-03T03:17:28.842Z,46.19
2016-11-03T03:18:09.474Z,46.19
2016-11-03T03:18:50.231Z,46.31
2016-11-03T03:19:30.890Z,46.12
2016-11-03T03:20:11.582Z,46.02
2016-11-03T03:20:52.256Z,46.29
2016-11-03T03:21:32.930Z,46.22
2016-11-03T03:22:13.621Z,46.41
2016-11-03T03:22:54.312Z,46.12
2016-11-03T03:23:34.973Z,46.31
2016-11-03T03:24:15.659Z,46.31
2016-11-03T03:24:56.311Z,46.12
2016-11-03T03:25:37.038Z,46.29
2016-11-03T03:26:17.703Z,46.51
2016-11-03T03:26:58.416Z,46.02
2016-11-03T03:27:39.070Z,46.41
2016-11-03T03:28:19.766Z,46.22
2016-11-03T03:29:00.455Z,46.31
2016-11-03T03:29:41.175Z,46.39
2016-11-03T03:30:21.874Z,46.51
2016-11-03T03:31:02.565Z,46.22
2016-11-03T03:31:43.299Z,46
2016-11-03T03:32:23.967Z,46.31
2016-11-03T03:33:04.638Z,46.29
2016-11-03T03:33:45.341Z,46.41
2016-11-03T03:34:26.035Z,46.31
2016-11-03T03:35:06.691Z,46.41
2016-11-03T03:35:47.395Z,46.22
2016-11-03T03:36:28.043Z,46.6
2016-11-03T03:37:08.731Z,46.51
2016-11-03T03:37:49.501Z,46.41
2016-11-03T03:38:30.137Z,46.12
2016-11-03T03:39:10.809Z,46.67
2016-11-03T03:39:51.448Z,46.39
2016-11-03T03:40:32.112Z,46.02
2016-11-03T03:41:12.828Z,46.31
2016-11-03T03:41:53.495Z,46
2016-11-03T03:42:34.199Z,46.51
2016-11-03T03:43:14.860Z,46.6
2016-11-03T03:43:55.542Z,46.58
2016-11-03T03:44:36.214Z,46.51
2016-11-03T03:45:16.886Z,46.02
2016-11-03T03:45:57.550Z,46.31
2016-11-03T03:46:38.212Z,46.12
2016-11-03T03:47:18.921Z,46.51
2016-11-03T03:47:59.552Z,46.39
2016-11-03T03:48:40.211Z,46.09
2016-11-03T03:49:20.890Z,46.22
2016-11-03T03:50:01.534Z,46.29
2016-11-03T03:50:42.209Z,46.67
2016-11-03T03:51:22.899Z,46.89
2016-11-03T03:52:03.634Z,46.51
2016-11-03T03:52:44.336Z,46.22
2016-11-03T03:53:25.050Z,46.58
2016-11-03T03:54:05.768Z,46.58
2016-11-03T03:54:46.484Z,46.6
2016-11-03T03:55:27.165Z,46.7
2016-11-03T03:56:07.852Z,46.67
2016-11-03T03:56:48.514Z,46.7
2016-11-03T03:57:29.180Z,46.51
2016-11-03T03:58:09.846Z,46.7
2016-11-03T03:58:50.548Z,46.51
2016-11-03T03:59:31.211Z,46.7
2016-11-03T04:00:11.915Z,46.58
2016-11-03T04:00:52.592Z,46.7
2016-11-03T04:01:33.275Z,46.51
2016-11-03T04:02:13.977Z,46.6
2016-11-03T04:02:54.677Z,46.29
2016-11-03T04:03:35.370Z,46.51
2016-11-03T04:04:16.053Z,46.31
2016-11-03T04:04:56.693Z,46.51
2016-11-03T04:05:37.385Z,46.67
2016-11-03T04:06:18.076Z,46.48
2016-11-03T04:06:58.738Z,46.7
2016-11-03T04:07:39.436Z,46.48
2016-11-03T04:08:20.153Z,46.8
2016-11-03T04:09:00.843Z,46.7
2016-11-03T04:09:41.532Z,46.77
2016-11-03T04:10:22.166Z,46.7
2016-11-03T04:11:02.844Z,46.51
2016-11-03T04:11:43.499Z,46.51
2016-11-03T04:12:25.012Z,46.7
2016-11-03T04:13:05.699Z,46.6
2016-11-03T04:13:46.376Z,46.31
2016-11-03T04:14:27.030Z,45.92
2016-11-03T04:15:07.693Z,46.6
2016-11-03T04:15:48.341Z,46.58
2016-11-03T04:16:29.000Z,46.8
2016-11-03T04:17:09.717Z,46.6
2016-11-03T04:17:50.405Z,46.7
2016-11-03T04:18:31.066Z,46.7
2016-11-03T04:19:11.741Z,46.6
2016-11-03T04:19:52.448Z,46.8
2016-11-03T04:20:33.170Z,46.67
2016-11-03T04:21:13.881Z,46.7
2016-11-03T04:21:54.592Z,46.6
2016-11-03T04:22:35.256Z,46.7
2016-11-03T04:23:15.885Z,46.6
2016-11-03T04:23:56.621Z,46.6
2016-11-03T04:24:37.271Z,46.6
2016-11-03T04:25:17.956Z,46.58
2016-11-03T04:25:58.593Z,46.7
2016-11-03T04:26:39.253Z,46.6
2016-11-03T04:27:19.902Z,46.7
2016-11-03T04:28:00.590Z,46.6
2016-11-03T04:28:41.307Z,46.6
2016-11-03T04:29:21.982Z,46.67
2016-11-03T04:30:02.688Z,46.7
2016-11-03T04:30:43.409Z,46.58
2016-11-03T04:31:24.088Z,46.6
2016-11-03T04:32:04.750Z,46.8
2016-11-03T04:32:45.426Z,46.6
2016-11-03T04:33:26.132Z,46.7
2016-11-03T04:34:06.833Z,46.6
2016-11-03T04:34:47.501Z,46.7
2016-11-03T04:35:28.181Z,46.6
2016-11-03T04:36:08.858Z,46.77
2016-11-03T04:36:49.487Z,46.6
2016-11-03T04:37:30.149Z,46.58
2016-11-03T04:38:10.843Z,46.8
2016-11-03T04:38:51.526Z,46.51
2016-11-03T04:39:32.241Z,46.8
2016-11-03T04:40:12.934Z,46.67
2016-11-03T04:40:53.607Z,46.89
2016-11-03T04:41:34.266Z,46.8
2016-11-03T04:42:14.938Z,46.7
2016-11-03T04:42:55.589Z,46.48
2016-11-03T04:43:36.242Z,46.7
2016-11-03T04:44:16.994Z,46.58
2016-11-03T04:44:57.687Z,46.58
2016-11-03T04:45:38.374Z,46.8
2016-11-03T04:46:19.073Z,46.6
2016-11-03T04:46:59.758Z,46.6
2016-11-03T04:47:40.436Z,46.67
2016-11-03T04:48:21.106Z,46.6
2016-11-03T04:49:01.799Z,46.67
2016-11-03T04:49:42.467Z,46.89
2016-11-03T04:50:23.188Z,46.77
2016-11-03T04:51:03.833Z,46.7
2016-11-03T04:51:44.504Z,46.8
2016-11-03T04:52:25.200Z,46.89
2016-11-03T04:53:05.885Z,46.67
2016-11-03T04:53:46.524Z,46.8
2016-11-03T04:54:27.245Z,46.8
2016-11-03T04:55:07.917Z,46.89
2016-11-03T04:55:48.555Z,46.6
2016-11-03T04:56:29.271Z,46.89
2016-11-03T04:57:09.939Z,46.6
2016-11-03T04:57:50.588Z,46.77
2016-11-03T04:58:31.269Z,46.7
2016-11-03T04:59:11.954Z,46.89
2016-11-03T04:59:52.650Z,46.89
2016-11-03T05:00:33.300Z,46.8
2016-11-03T05:01:13.941Z,46.6
2016-11-03T05:01:54.642Z,46.67
2016-11-03T05:02:35.312Z,46.8
2016-11-03T05:03:16.028Z,46.7
2016-11-03T05:03:56.720Z,46.8
2016-11-03T05:04:37.381Z,46.89
2016-11-03T05:05:18.098Z,46.89
2016-11-03T05:05:58.815Z,46.8
2016-11-03T05:06:39.529Z,46.67
2016-11-03T05:07:20.180Z,46.6
2016-11-03T05:08:00.879Z,46.67
2016-11-03T05:08:41.569Z,46.8
2016-11-03T05:09:22.270Z,46.7
2016-11-03T05:10:02.927Z,46.58
2016-11-03T05:10:43.587Z,46.7
2016-11-03T05:11:24.300Z,46.7
2016-11-03T05:12:04.985Z,46.7
2016-11-03T05:12:45.673Z,46.6
2016-11-03T05:13:26.358Z,46.7
2016-11-03T05:14:07.011Z,46.89
2016-11-03T05:14:47.651Z,46.8
2016-11-03T05:15:28.323Z,46.6
2016-11-03T05:16:08.993Z,46.99
2016-11-03T05:16:49.662Z,46.77
2016-11-03T05:17:30.329Z,46.97
2016-11-03T05:18:11.029Z,46.97
2016-11-03T05:18:51.719Z,46.7
2016-11-03T05:19:32.410Z,46.77
2016-11-03T05:20:13.090Z,46.89
2016-11-03T05:20:53.828Z,46.77
2016-11-03T05:21:34.498Z,47.06
2016-11-03T05:22:15.200Z,46.99
2016-11-03T05:22:55.923Z,46.87
2016-11-03T05:23:36.554Z,47.09
2016-11-03T05:24:17.270Z,46.77
2016-11-03T05:24:57.949Z,46.77
2016-11-03T05:25:38.643Z,47.09
2016-11-03T05:26:19.313Z,47.09
2016-11-03T05:27:00.000Z,47.19
2016-11-03T05:27:40.711Z,47.09
2016-11-03T05:28:21.444Z,47.06
2016-11-03T05:29:02.131Z,46.99
2016-11-03T05:29:42.845Z,46.89
2016-11-03T05:30:23.566Z,46.87
2016-11-03T05:31:04.256Z,46.97
2016-11-03T05:31:44.946Z,46.89
2016-11-03T05:32:25.658Z,46.7
2016-11-03T05:33:06.362Z,46.8
2016-11-03T05:33:47.015Z,46.97
2016-11-03T05:34:27.740Z,46.77
2016-11-03T05:35:08.407Z,46.89
2016-11-03T05:35:49.056Z,46.8
2016-11-03T05:36:29.761Z,46.87
2016-11-03T05:37:10.398Z,46.89
2016-11-03T05:37:51.099Z,46.89
2016-11-03T05:38:31.786Z,46.67
2016-11-03T05:39:12.521Z,46.8
2016-11-03T05:39:53.259Z,46.67
2016-11-03T05:40:33.946Z,46.99
2016-11-03T05:41:14.639Z,46.99
2016-11-03T05:41:55.281Z,46.89
2016-11-03T05:42:35.988Z,46.77
2016-11-03T05:43:16.648Z,47.06
2016-11-03T05:43:57.310Z,46.99
2016-11-03T05:44:38.006Z,46.8
2016-11-03T05:45:18.719Z,47.06
2016-11-03T05:45:59.407Z,47.09
2016-11-03T05:46:40.122Z,47.06
2016-11-03T05:47:20.817Z,47.06
2016-11-03T05:48:01.468Z,47.06
2016-11-03T05:48:42.179Z,47.19
2016-11-03T05:49:22.873Z,46.7
2016-11-03T05:50:03.496Z,47.06
2016-11-03T05:50:44.239Z,46.99
2016-11-03T05:51:24.927Z,46.7
2016-11-03T05:52:05.663Z,46.8
2016-11-03T05:52:46.366Z,47.09
2016-11-03T05:53:27.051Z,47.06
2016-11-03T05:54:07.762Z,47.19
2016-11-03T05:54:48.401Z,47.28
2016-11-03T05:55:29.098Z,47.28
2016-11-03T05:56:09.789Z,47.06
2016-11-03T05:56:50.474Z,47.06
2016-11-03T05:57:31.153Z,47.19
2016-11-03T05:58:11.828Z,47.09
2016-11-03T05:58:52.512Z,47.06
2016-11-03T05:59:33.213Z,47.09
2016-11-03T06:00:13.874Z,46.99
2016-11-03T06:00:54.556Z,46.89
2016-11-03T06:01:35.242Z,47.06
2016-11-03T06:02:15.912Z,46.97
2016-11-03T06:02:56.617Z,47.09
2016-11-03T06:03:37.336Z,46.99
2016-11-03T06:04:17.994Z,47.19
2016-11-03T06:04:58.693Z,47.09
2016-11-03T06:05:39.412Z,46.97
2016-11-03T06:06:20.084Z,47.09
2016-11-03T06:07:00.710Z,46.97
2016-11-03T06:07:41.386Z,47.16
2016-11-03T06:08:22.097Z,47.09
2016-11-03T06:09:02.764Z,47.16
2016-11-03T06:09:43.447Z,47.16
2016-11-03T06:10:24.152Z,46.99
2016-11-03T06:11:04.826Z,46.89
2016-11-03T06:11:45.510Z,46.87
2016-11-03T06:12:26.214Z,46.99
2016-11-03T06:13:06.885Z,46.99
2016-11-03T06:13:47.557Z,46.97
2016-11-03T06:14:28.277Z,47.09
2016-11-03T06:15:08.953Z,47.09
2016-11-03T06:15:49.624Z,46.89
2016-11-03T06:16:30.359Z,47.28
2016-11-03T06:17:11.038Z,47.26
2016-11-03T06:17:51.734Z,47.09
2016-11-03T06:18:32.404Z,46.99
2016-11-03T06:19:13.079Z,47.09
2016-11-03T06:19:53.760Z,47.06
2016-11-03T06:20:34.408Z,46.99
2016-11-03T06:21:15.023Z,47.16
2016-11-03T06:21:55.711Z,47.26
2016-11-03T06:22:36.408Z,47.06
2016-11-03T06:23:17.074Z,47.28
2016-11-03T06:23:57.738Z,47.26
2016-11-03T06:24:38.481Z,47.06
2016-11-03T06:25:19.151Z,47.26
2016-11-03T06:25:59.815Z,46.99
2016-11-03T06:26:40.501Z,46.97
2016-11-03T06:27:21.156Z,47.06
2016-11-03T06:28:01.783Z,47.06
2016-11-03T06:28:42.536Z,47.26
2016-11-03T06:29:23.215Z,47.19
2016-11-03T06:30:03.936Z,47.09
2016-11-03T06:30:44.663Z,47.38
2016-11-03T06:31:25.360Z,47.28
2016-11-03T06:32:06.068Z,47.09
2016-11-03T06:32:46.730Z,47.09
2016-11-03T06:33:27.406Z,47.09
2016-11-03T06:34:08.060Z,47.09
2016-11-03T06:34:48.724Z,47.09
2016-11-03T06:35:29.417Z,47.09
2016-11-03T06:36:10.051Z,47.09
2016-11-03T06:36:50.714Z,47.06
2016-11-03T06:37:31.378Z,47.19
2016-11-03T06:38:12.144Z,46.97
2016-11-03T06:38:52.835Z,46.87
2016-11-03T06:39:33.501Z,46.87
2016-11-03T06:40:14.228Z,46.8
2016-11-03T06:40:54.922Z,46.89
2016-11-03T06:41:35.594Z,46.77
2016-11-03T06:42:16.274Z,46.8
2016-11-03T06:42:56.931Z,46.8
2016-11-03T06:43:37.791Z,46.7
2016-11-03T06:44:18.308Z,46.7
2016-11-03T06:44:58.975Z,46.99
2016-11-03T06:45:39.640Z,46.89
2016-11-03T06:46:20.299Z,46.7
2016-11-03T06:47:00.968Z,46.8
2016-11-03T06:47:41.620Z,46.8
2016-11-03T06:48:22.264Z,46.89
2016-11-03T06:49:02.918Z,46.7
2016-11-03T06:49:43.604Z,46.8
2016-11-03T06:50:24.250Z,46.8
2016-11-03T06:51:04.966Z,46.89
2016-11-03T06:51:45.645Z,46.89
2016-11-03T06:52:26.340Z,46.99
2016-11-03T06:53:07.075Z,46.8
2016-11-03T06:53:47.793Z,46.89
2016-11-03T06:54:28.470Z,46.7
2016-11-03T06:55:09.145Z,46.99
2016-11-03T06:55:49.875Z,46.89
2016-11-03T06:56:30.552Z,46.7
2016-11-03T06:57:11.180Z,46.7
2016-11-03T06:57:51.890Z,46.7
2016-11-03T06:58:32.548Z,46.99
2016-11-03T06:59:13.268Z,46.89
2016-11-03T06:59:53.914Z,46.8
2016-11-03T07:00:34.586Z,46.8
2016-11-03T07:01:15.260Z,46.99
2016-11-03T07:01:56.110Z,46.8
2016-11-03T07:02:36.755Z,46.89
2016-11-03T07:03:17.472Z,46.99
2016-11-03T07:03:58.156Z,46.7
2016-11-03T07:04:38.839Z,46.6
2016-11-03T07:05:19.580Z,46.7
2016-11-03T07:06:00.278Z,46.8
2016-11-03T07:06:40.935Z,46.7
2016-11-03T07:07:21.622Z,46.7
2016-11-03T07:08:02.331Z,46.6
2016-11-03T07:08:43.013Z,46.7
2016-11-03T07:09:23.679Z,46.7
2016-11-03T07:10:04.365Z,46.7
2016-11-03T07:10:45.062Z,46.8
2016-11-03T07:11:25.722Z,46.7
2016-11-03T07:12:06.431Z,46.8
2016-11-03T07:12:47.131Z,46.8
2016-11-03T07:13:27.807Z,46.51
2016-11-03T07:14:08.472Z,46.41
2016-11-03T07:14:49.142Z,46.7
2016-11-03T07:15:29.807Z,46.6
2016-11-03T07:16:10.497Z,46.41
2016-11-03T07:16:51.164Z,46.51
2016-11-03T07:17:31.838Z,46.51
2016-11-03T07:18:12.515Z,46.31
2016-11-03T07:18:53.261Z,46.51
2016-11-03T07:19:33.942Z,46.51
2016-11-03T07:20:14.661Z,46.22
2016-11-03T07:20:55.382Z,46.6
2016-11-03T07:21:36.103Z,47.94
2016-11-03T07:22:16.792Z,48.32
2016-11-03T07:22:57.513Z,49.29
2016-11-03T07:23:38.179Z,49.92
2016-11-03T07:24:18.893Z,49.17
2016-11-03T07:24:59.550Z,48.76
2016-11-03T07:25:40.280Z,49.34
2016-11-03T07:26:20.985Z,49.73
2016-11-03T07:27:01.647Z,49.7
2016-11-03T07:27:42.335Z,50.09
2016-11-03T07:28:23.022Z,49.6
2016-11-03T07:29:03.740Z,50.07
2016-11-03T07:29:44.417Z,50.35
2016-11-03T07:30:25.083Z,51.1
2016-11-03T07:31:05.766Z,50.71
2016-11-03T07:31:46.466Z,51.2
2016-11-03T07:32:27.230Z,50.91
2016-11-03T07:33:07.903Z,50.71
2016-11-03T07:33:48.606Z,50.71
2016-11-03T07:34:29.303Z,51.2
2016-11-03T07:35:09.978Z,51.39
2016-11-03T07:35:50.691Z,51.39
2016-11-03T07:36:31.299Z,51.17
2016-11-03T07:37:12.006Z,51.59
2016-11-03T07:37:52.668Z,51.39
2016-11-03T07:38:33.367Z,51.39
2016-11-03T07:39:14.104Z,51.2
2016-11-03T07:39:54.815Z,51.78
2016-11-03T07:40:35.482Z,52.26
2016-11-03T07:41:16.199Z,52.36
2016-11-03T07:41:56.889Z,52.26
2016-11-03T07:42:37.583Z,50.91
2016-11-03T07:43:18.281Z,51.1
2016-11-03T07:43:59.004Z,51.59
2016-11-03T07:44:39.713Z,51.29
2016-11-03T07:45:20.364Z,51.2
2016-11-03T07:46:01.082Z,51.39
2016-11-03T07:46:41.799Z,51.2
2016-11-03T07:47:22.455Z,51.97
2016-11-03T07:48:03.147Z,51.97
2016-11-03T07:48:43.826Z,51.1
2016-11-03T07:49:24.564Z,51.1
2016-11-03T07:50:05.227Z,50.71
2016-11-03T07:50:45.923Z,50.71
2016-11-03T07:51:26.621Z,50.45
2016-11-03T07:52:07.283Z,49.9
2016-11-03T07:52:47.982Z,49.99
2016-11-03T07:53:28.720Z,49.99
2016-11-03T07:54:09.392Z,49.82
2016-11-03T07:54:50.032Z,49.34
2016-11-03T07:55:30.726Z,49.34
2016-11-03T07:56:11.381Z,49.44
2016-11-03T07:56:52.113Z,49.07
2016-11-03T07:57:32.782Z,48.88
2016-11-03T07:58:13.501Z,48.59
2016-11-03T07:58:54.188Z,48.88
2016-11-03T07:59:34.906Z,48.11
2016-11-03T08:00:15.600Z,48.42
2016-11-03T08:00:56.317Z,48.2
2016-11-03T08:01:37.028Z,48.03
2016-11-03T08:02:17.765Z,48.13
2016-11-03T08:02:58.459Z,47.74
2016-11-03T08:03:39.158Z,47.94
2016-11-03T08:04:19.919Z,48.03
2016-11-03T08:05:00.552Z,47.84
2016-11-03T08:05:41.245Z,48.03
2016-11-03T08:06:21.910Z,48.13
2016-11-03T08:07:02.582Z,47.45
2016-11-03T08:07:43.217Z,47.45
2016-11-03T08:08:23.929Z,47.64
2016-11-03T08:09:04.620Z,47.67
2016-11-03T08:09:45.325Z,47.57
2016-11-03T08:10:26.050Z,47.67
2016-11-03T08:11:06.785Z,47.64
2016-11-03T08:11:47.491Z,47.77
2016-11-03T08:12:28.288Z,47.67
2016-11-03T08:13:08.975Z,47.77
2016-11-03T08:13:49.692Z,46.99
2016-11-03T08:14:30.379Z,47.09
2016-11-03T08:15:11.057Z,46.7
2016-11-03T08:15:51.716Z,46.99
2016-11-03T08:16:32.419Z,46.89
2016-11-03T08:17:13.111Z,46.89
2016-11-03T08:17:53.758Z,46.6
2016-11-03T08:18:34.493Z,46.41
2016-11-03T08:19:15.170Z,46.41
2016-11-03T08:19:55.907Z,45.64
2016-11-03T08:20:36.597Z,45.34
2016-11-03T08:21:17.243Z,45.92
2016-11-03T08:21:57.930Z,45.25
2016-11-03T08:22:38.603Z,45.54
2016-11-03T08:23:19.360Z,45.54
2016-11-03T08:24:00.125Z,45.25
2016-11-03T08:24:40.855Z,45.25
2016-11-03T08:25:21.573Z,45.34
2016-11-03T08:26:02.349Z,45.15
2016-11-03T08:26:43.015Z,44.67
2016-11-03T08:27:23.762Z,44.47
2016-11-03T08:28:04.449Z,44.57
2016-11-03T08:28:45.319Z,44.27
2016-11-03T08:29:26.133Z,44.67
2016-11-03T08:30:06.932Z,44.57
2016-11-03T08:30:47.702Z,44.67
2016-11-03T08:31:28.463Z,44.27
2016-11-03T08:32:09.125Z,44.47
2016-11-03T08:32:49.827Z,44.27
2016-11-03T08:33:30.544Z,44.27
2016-11-03T08:34:11.242Z,44.27
2016-11-03T08:34:51.977Z,44.47
2016-11-03T08:35:32.717Z,44.09
2016-11-03T08:36:13.428Z,44.18
2016-11-03T08:36:54.064Z,43.89
2016-11-03T08:37:34.775Z,43.79
2016-11-03T08:38:15.458Z,44.09
2016-11-03T08:38:56.158Z,44.27
2016-11-03T08:39:36.874Z,43.99
2016-11-03T08:40:17.603Z,43.79
2016-11-03T08:40:58.318Z,43.31
2016-11-03T08:41:38.974Z,43.31
2016-11-03T08:42:19.653Z,43.21
2016-11-03T08:43:00.377Z,43.12
2016-11-03T08:43:41.106Z,43.12
2016-11-03T08:44:21.796Z,42.92
2016-11-03T08:45:02.463Z,42.92
2016-11-03T08:45:43.140Z,42.92
2016-11-03T08:46:23.831Z,42.54
2016-11-03T08:47:04.516Z,42.82